Terminal Aerodrome Forecast
Issued by NWS

Home | Current Version | Previous Version | Text Only | Print | Product List | Glossary On
Versions: 1 2 3 4 5 6 7 8 9 10 11 12 13 14 15 16 17 18 19 20 21
000
FTUS43 KICT 261724
TAFCNU
TAF
KCNU 261724Z 2618/2718 23012KT P6SM SCT030
      TEMPO 2618/2621 BKN030
     FM270000 19006KT P6SM VCTS SCT030CB BKN100
     FM270800 18004KT 4SM BR SCT015
     FM271400 12005KT P6SM SCT020=

USA.gov is the U.S. government's official web portal to all federal, state and local government web resources and services.